createdAt,value
2022-10-05T00:00:03.970Z,9.457117
2022-10-05T00:01:03.961Z,9.457199
2022-10-05T00:02:04.042Z,9.457227
2022-10-05T00:03:03.963Z,9.457209
2022-10-05T00:04:03.946Z,9.457173
2022-10-05T00:05:03.971Z,9.457234
2022-10-05T00:06:03.905Z,9.457171
2022-10-05T00:07:03.907Z,9.457361
2022-10-05T00:08:03.911Z,9.457203
2022-10-05T00:09:03.878Z,9.457250
2022-10-05T00:10:03.876Z,9.457339
2022-10-05T00:11:03.871Z,9.457233
2022-10-05T00:12:03.847Z,9.457122
2022-10-05T00:13:03.860Z,9.457236
2022-10-05T00:14:03.896Z,9.457243
2022-10-05T00:15:03.826Z,9.457215
2022-10-05T00:16:03.827Z,9.457164
2022-10-05T00:17:03.880Z,9.457232
2022-10-05T00:18:03.818Z,9.457211
2022-10-05T00:19:03.787Z,9.457101
2022-10-05T00:20:03.769Z,9.457202
2022-10-05T00:21:03.765Z,9.457291
2022-10-05T00:22:03.763Z,9.457229
2022-10-05T00:23:03.777Z,9.457296
2022-10-05T00:24:03.742Z,9.457250
2022-10-05T00:25:03.730Z,9.457250
2022-10-05T00:26:03.713Z,9.457136
2022-10-05T00:27:04.717Z,9.457102
2022-10-05T00:28:03.801Z,9.457161
2022-10-05T00:29:03.687Z,9.457188
2022-10-05T00:30:03.683Z,9.457273
2022-10-05T00:31:03.674Z,9.457145
2022-10-05T00:32:03.694Z,9.457131
2022-10-05T00:33:03.678Z,9.457200
2022-10-05T00:34:03.650Z,9.457211
2022-10-05T00:35:03.639Z,9.457225
2022-10-05T00:36:03.617Z,9.457344
2022-10-05T00:37:03.623Z,9.457367
2022-10-05T00:38:03.630Z,9.457209
2022-10-05T00:39:03.600Z,9.457275
2022-10-05T00:40:03.580Z,9.457467
2022-10-05T00:41:03.578Z,9.457370
2022-10-05T00:42:03.566Z,9.457150
2022-10-05T00:43:03.582Z,9.457165
2022-10-05T00:44:03.554Z,9.457079
2022-10-05T00:45:03.537Z,9.457555
2022-10-05T00:46:03.603Z,9.457432
2022-10-05T00:47:03.534Z,9.457389
2022-10-05T00:48:03.530Z,9.457187
2022-10-05T00:49:03.496Z,9.457128
2022-10-05T00:50:03.493Z,9.457206
2022-10-05T00:51:03.473Z,9.457221
2022-10-05T00:52:03.469Z,9.457217
2022-10-05T00:53:03.480Z,9.457174
2022-10-05T00:54:03.458Z,9.457269
2022-10-05T00:55:03.428Z,9.457372
2022-10-05T00:56:03.423Z,9.457313
2022-10-05T00:57:03.410Z,9.457326
2022-10-05T00:58:03.422Z,9.457444
2022-10-05T00:59:03.398Z,9.457316
2022-10-05T01:00:03.390Z,9.457211
2022-10-05T01:01:03.425Z,9.456998
2022-10-05T01:02:03.428Z,9.457045
2022-10-05T01:03:03.378Z,9.457091
2022-10-05T01:04:03.350Z,9.457049
2022-10-05T01:05:03.342Z,9.457039
2022-10-05T01:06:03.326Z,9.457238
2022-10-05T01:07:03.316Z,9.457170
2022-10-05T01:08:03.335Z,9.457294
2022-10-05T01:09:03.296Z,9.457150
2022-10-05T01:10:03.289Z,9.457093
2022-10-05T01:11:03.272Z,9.457136
2022-10-05T01:12:03.267Z,9.457432
2022-10-05T01:13:03.281Z,9.457273
2022-10-05T01:14:03.251Z,9.457400
2022-10-05T01:15:03.244Z,9.457329
2022-10-05T01:16:03.268Z,9.457318
2022-10-05T01:17:03.240Z,9.457323
2022-10-05T01:18:03.226Z,9.457251
2022-10-05T01:19:03.190Z,9.457194
2022-10-05T01:20:03.198Z,9.457315
2022-10-05T01:21:03.190Z,9.457236
2022-10-05T01:22:03.177Z,9.457177
2022-10-05T01:23:03.165Z,9.457220
2022-10-05T01:24:03.157Z,9.457272
2022-10-05T01:25:03.149Z,9.456985
2022-10-05T01:26:03.139Z,9.457108
2022-10-05T01:27:03.124Z,9.457156
2022-10-05T01:28:03.186Z,9.457470
2022-10-05T01:29:03.107Z,9.457549
2022-10-05T01:30:03.102Z,9.456852
2022-10-05T01:31:03.082Z,9.456841
2022-10-05T01:32:03.074Z,9.456697
2022-10-05T01:33:03.081Z,9.457009
2022-10-05T01:34:05.723Z,9.457072
2022-10-05T01:35:03.052Z,9.457292
2022-10-05T01:36:03.033Z,9.457647
2022-10-05T01:37:03.028Z,9.457696
2022-10-05T01:38:03.035Z,9.457609
2022-10-05T01:39:03.011Z,9.457552
2022-10-05T01:40:03.012Z,9.457633
2022-10-05T01:41:02.987Z,9.457560
2022-10-05T01:42:02.973Z,9.456981
2022-10-05T01:43:02.991Z,9.457741
2022-10-05T01:44:02.961Z,9.457639
2022-10-05T01:45:02.956Z,9.457252
2022-10-05T01:46:03.007Z,9.457395
2022-10-05T01:47:02.928Z,9.457401
2022-10-05T01:48:02.935Z,9.457696
2022-10-05T01:49:02.913Z,9.457975
2022-10-05T01:50:02.893Z,9.457285
2022-10-05T01:51:02.891Z,9.457835
2022-10-05T01:52:02.892Z,9.457365
2022-10-05T01:53:02.892Z,9.457622
2022-10-05T01:54:02.861Z,9.457207
2022-10-05T01:55:02.856Z,9.457626
2022-10-05T01:56:02.840Z,9.457742
2022-10-05T01:57:02.831Z,9.457691
2022-10-05T01:58:02.838Z,9.457782
2022-10-05T01:59:02.828Z,9.457589
2022-10-05T02:00:02.798Z,9.457563
2022-10-05T02:01:02.824Z,9.457784
2022-10-05T02:02:02.869Z,9.457352
2022-10-05T02:03:02.793Z,9.457200
2022-10-05T02:04:02.765Z,9.457399
2022-10-05T02:05:03.225Z,9.457219
2022-10-05T02:06:02.752Z,9.457219
2022-10-05T02:07:02.784Z,9.457274
2022-10-05T02:08:02.751Z,9.457454
2022-10-05T02:09:02.713Z,9.457689
2022-10-05T02:10:02.701Z,9.457705
2022-10-05T02:11:02.700Z,9.457711
2022-10-05T02:12:02.695Z,9.457294
2022-10-05T02:13:02.695Z,9.457450
2022-10-05T02:14:02.657Z,9.457386
2022-10-05T02:15:02.656Z,9.456975
2022-10-05T02:16:02.723Z,9.456884
2022-10-05T02:17:02.639Z,9.456872
2022-10-05T02:18:02.636Z,9.457154
2022-10-05T02:19:02.617Z,9.457067
2022-10-05T02:20:02.607Z,9.457144
2022-10-05T02:21:02.595Z,9.457442
2022-10-05T02:22:02.582Z,9.457672
2022-10-05T02:23:02.609Z,9.457495
2022-10-05T02:24:02.571Z,9.457108
2022-10-05T02:25:02.562Z,9.457274
2022-10-05T02:26:02.539Z,9.457267
2022-10-05T02:27:02.532Z,9.457089
2022-10-05T02:28:02.606Z,9.456977
2022-10-05T02:29:02.519Z,9.457003
2022-10-05T02:30:02.512Z,9.457253
2022-10-05T02:31:02.549Z,9.457117
2022-10-05T02:32:02.488Z,9.457328
2022-10-05T02:33:02.500Z,9.457480
2022-10-05T02:34:02.467Z,9.457118
2022-10-05T02:35:02.471Z,9.457169
2022-10-05T02:36:02.456Z,9.457156
2022-10-05T02:37:02.440Z,9.457155
2022-10-05T02:38:02.438Z,9.457086
2022-10-05T02:39:02.422Z,9.457044
2022-10-05T02:40:02.405Z,9.456852
2022-10-05T02:41:02.403Z,9.456703
2022-10-05T02:42:02.395Z,9.456601
2022-10-05T02:43:02.395Z,9.456851
2022-10-05T02:44:02.368Z,9.456950
2022-10-05T02:45:02.357Z,9.456860
2022-10-05T02:46:02.347Z,9.456919
2022-10-05T02:47:02.344Z,9.457219
2022-10-05T02:48:02.377Z,9.457250
2022-10-05T02:49:02.321Z,9.457304
2022-10-05T02:50:02.301Z,9.457232
2022-10-05T02:51:02.307Z,9.457116
2022-10-05T02:52:02.288Z,9.457139
2022-10-05T02:53:02.302Z,9.457355
2022-10-05T02:54:02.258Z,9.457129
2022-10-05T02:55:02.258Z,9.457150
2022-10-05T02:56:02.250Z,9.457338
2022-10-05T02:57:02.243Z,9.457093
2022-10-05T02:58:02.244Z,9.457124
2022-10-05T02:59:02.243Z,9.457273
2022-10-05T03:00:02.207Z,9.457234
2022-10-05T03:01:02.237Z,9.457177
2022-10-05T03:02:02.219Z,9.457334
2022-10-05T03:03:02.192Z,9.457302
2022-10-05T03:04:02.166Z,9.457253
2022-10-05T03:05:02.156Z,9.457387
2022-10-05T03:06:02.155Z,9.457175
2022-10-05T03:07:02.137Z,9.456504
2022-10-05T03:08:02.148Z,9.457092
2022-10-05T03:09:02.109Z,9.457210
2022-10-05T03:10:02.094Z,9.457465
2022-10-05T03:11:02.093Z,9.457528
2022-10-05T03:12:02.073Z,9.457489
2022-10-05T03:13:03.102Z,9.457402
2022-10-05T03:14:02.074Z,9.457301
2022-10-05T03:15:02.061Z,9.457397
2022-10-05T03:16:02.109Z,9.457455
2022-10-05T03:17:02.033Z,9.457185
2022-10-05T03:18:02.049Z,9.457324
2022-10-05T03:19:02.020Z,9.457258
2022-10-05T03:20:02.009Z,9.456935
2022-10-05T03:21:02.000Z,9.457168
2022-10-05T03:22:01.987Z,9.457273
2022-10-05T03:23:01.995Z,9.457232
2022-10-05T03:24:01.958Z,9.457291
2022-10-05T03:25:01.958Z,9.457066
2022-10-05T03:26:01.950Z,9.457113
2022-10-05T03:27:01.933Z,9.456985
2022-10-05T03:28:01.981Z,9.456856
2022-10-05T03:29:01.926Z,9.456887
2022-10-05T03:30:01.908Z,9.457143
2022-10-05T03:31:01.974Z,9.457096
2022-10-05T03:32:01.888Z,9.457388
2022-10-05T03:33:01.901Z,9.457202
2022-10-05T03:34:01.874Z,9.457247
2022-10-05T03:35:01.862Z,9.457329
2022-10-05T03:36:01.877Z,9.457155
2022-10-05T03:37:01.834Z,9.457144
2022-10-05T03:38:01.841Z,9.457179
2022-10-05T03:39:01.820Z,9.457241
2022-10-05T03:40:01.807Z,9.457352
2022-10-05T03:41:01.800Z,9.457198
2022-10-05T03:42:01.788Z,9.457234
2022-10-05T03:43:01.806Z,9.457168
2022-10-05T03:44:01.769Z,9.457079
2022-10-05T03:45:01.758Z,9.457335
2022-10-05T03:46:01.750Z,9.457338
2022-10-05T03:47:01.741Z,9.457180
2022-10-05T03:48:01.910Z,9.457134
2022-10-05T03:49:01.719Z,9.457135
2022-10-05T03:50:01.716Z,9.457261
2022-10-05T03:51:01.710Z,9.457280
2022-10-05T03:52:01.688Z,9.457248
2022-10-05T03:53:01.701Z,9.457308
2022-10-05T03:54:01.676Z,9.457232
2022-10-05T03:55:01.672Z,9.457166
2022-10-05T03:56:03.461Z,9.457211
2022-10-05T03:57:02.648Z,9.457160
2022-10-05T03:58:01.636Z,9.457231
2022-10-05T03:59:01.657Z,9.457315
2022-10-05T04:00:01.615Z,9.457189
2022-10-05T04:01:01.610Z,9.457092
2022-10-05T04:02:01.596Z,9.457113
2022-10-05T04:03:01.730Z,9.457196
2022-10-05T04:04:01.583Z,9.457251
2022-10-05T04:05:01.567Z,9.457317
2022-10-05T04:06:01.561Z,9.457288
2022-10-05T04:07:01.550Z,9.457252
2022-10-05T04:08:01.539Z,9.457335
2022-10-05T04:09:01.545Z,9.457272
2022-10-05T04:10:01.527Z,9.457362
2022-10-05T04:11:01.512Z,9.457212
2022-10-05T04:12:01.505Z,9.457209
2022-10-05T04:13:01.498Z,9.457166
2022-10-05T04:14:01.512Z,9.457252
2022-10-05T04:15:01.476Z,9.457284
2022-10-05T04:16:01.504Z,9.457319
2022-10-05T04:17:01.447Z,9.457222
2022-10-05T04:18:01.468Z,9.457315
2022-10-05T04:19:01.435Z,9.457247
2022-10-05T04:20:01.426Z,9.457232
2022-10-05T04:21:01.411Z,9.457197
2022-10-05T04:22:01.409Z,9.457199
2022-10-05T04:23:01.436Z,9.457041
2022-10-05T04:24:01.386Z,9.457273
2022-10-05T04:25:01.376Z,9.457264
2022-10-05T04:26:01.366Z,9.457244
2022-10-05T04:27:01.358Z,9.457211
2022-10-05T04:28:01.443Z,9.457311
2022-10-05T04:29:01.336Z,9.457415
2022-10-05T04:30:01.340Z,9.457330
2022-10-05T04:31:01.350Z,9.457301
2022-10-05T04:32:01.313Z,9.457314
2022-10-05T04:33:01.294Z,9.457296
2022-10-05T04:34:01.305Z,9.457098
2022-10-05T04:35:01.295Z,9.457307
2022-10-05T04:36:01.271Z,9.457190
2022-10-05T04:37:01.277Z,9.457186
2022-10-05T04:38:01.255Z,9.457253
2022-10-05T04:39:01.269Z,9.457256
2022-10-05T04:40:01.228Z,9.457180
2022-10-05T04:41:01.217Z,9.457273
2022-10-05T04:42:01.211Z,9.457076
2022-10-05T04:43:01.238Z,9.457044
2022-10-05T04:44:01.205Z,9.457150
2022-10-05T04:45:01.171Z,9.457239
2022-10-05T04:46:01.181Z,9.457221
2022-10-05T04:47:01.207Z,9.457202
2022-10-05T04:48:01.169Z,9.457145
2022-10-05T04:49:01.150Z,9.457264
2022-10-05T04:50:01.128Z,9.457203
2022-10-05T04:51:01.115Z,9.457264
2022-10-05T04:52:02.108Z,9.457395
2022-10-05T04:53:01.149Z,9.457227
2022-10-05T04:54:01.090Z,9.457211
2022-10-05T04:55:01.080Z,9.457303
2022-10-05T04:56:01.075Z,9.457312
2022-10-05T04:57:01.066Z,9.457277
2022-10-05T04:58:01.082Z,9.457250
2022-10-05T04:59:01.053Z,9.457168
2022-10-05T05:00:01.044Z,9.457231
2022-10-05T05:01:01.055Z,9.457265
2022-10-05T05:02:01.028Z,9.457294
2022-10-05T05:03:01.039Z,9.457284
2022-10-05T05:04:01.065Z,9.457221
2022-10-05T05:05:00.975Z,9.457105
2022-10-05T05:06:17.318Z,9.457189
2022-10-05T05:07:02.979Z,9.457302
2022-10-05T05:08:00.980Z,9.457135
2022-10-05T05:09:00.941Z,9.457146
2022-10-05T05:10:00.937Z,9.457207
2022-10-05T05:11:00.934Z,9.457355
2022-10-05T05:12:00.928Z,9.457247
2022-10-05T05:13:00.924Z,9.457354
2022-10-05T05:14:00.909Z,9.457261
2022-10-05T05:15:00.894Z,9.457221
2022-10-05T05:16:00.979Z,9.457275
2022-10-05T05:17:00.865Z,9.457221
2022-10-05T05:18:00.885Z,9.457149
2022-10-05T05:19:00.857Z,9.457230
2022-10-05T05:20:00.850Z,9.457125
2022-10-05T05:21:00.817Z,9.457232
2022-10-05T05:22:00.814Z,9.457187
2022-10-05T05:23:00.828Z,9.457183
2022-10-05T05:24:00.797Z,9.457146
2022-10-05T05:25:00.792Z,9.457203
2022-10-05T05:26:00.785Z,9.457166
2022-10-05T05:27:00.771Z,9.457232
2022-10-05T05:28:00.837Z,9.457215
2022-10-05T05:29:00.748Z,9.457219
2022-10-05T05:30:00.739Z,9.457285
2022-10-05T05:31:00.807Z,9.457235
2022-10-05T05:32:00.723Z,9.457251
2022-10-05T05:33:00.720Z,9.457271
2022-10-05T05:34:00.700Z,9.457157
2022-10-05T05:35:00.692Z,9.457211
2022-10-05T05:36:00.678Z,9.457238
2022-10-05T05:37:00.662Z,9.457175
2022-10-05T05:38:00.677Z,9.457135
2022-10-05T05:39:00.657Z,9.457146
2022-10-05T05:40:00.642Z,9.457223
2022-10-05T05:41:00.632Z,9.457253
2022-10-05T05:42:00.623Z,9.457150
2022-10-05T05:43:00.625Z,9.457253
2022-10-05T05:44:00.605Z,9.457130
2022-10-05T05:45:00.598Z,9.457296
2022-10-05T05:46:00.588Z,9.457261
2022-10-05T05:47:05.028Z,9.457155
2022-10-05T05:48:01.585Z,9.457080
2022-10-05T05:49:00.549Z,9.457219
2022-10-05T05:50:06.337Z,9.457348
2022-10-05T05:51:02.530Z,9.457307
2022-10-05T05:52:00.519Z,9.457282
2022-10-05T05:53:00.533Z,9.457217
2022-10-05T05:54:00.507Z,9.457266
2022-10-05T05:55:00.492Z,9.457456
2022-10-05T05:56:00.482Z,9.457348
2022-10-05T05:57:00.476Z,9.457178
2022-10-05T05:58:00.485Z,9.457122
2022-10-05T05:59:00.456Z,9.457109
2022-10-05T06:00:01.452Z,9.457062
2022-10-05T06:01:00.446Z,9.457076
2022-10-05T06:02:00.498Z,9.457062
2022-10-05T06:03:00.642Z,9.457233
2022-10-05T06:04:00.411Z,9.457129
2022-10-05T06:05:00.399Z,9.457151
2022-10-05T06:06:00.469Z,9.457072
2022-10-05T06:07:00.386Z,9.457040
2022-10-05T06:08:00.385Z,9.457114
2022-10-05T06:09:00.365Z,9.457107
2022-10-05T06:10:00.351Z,9.457041
2022-10-05T06:11:00.342Z,9.457088
2022-10-05T06:12:00.326Z,9.457042
2022-10-05T06:13:01.826Z,9.457053
2022-10-05T06:14:01.310Z,9.457074
2022-10-05T06:15:00.319Z,9.457035
2022-10-05T06:16:00.317Z,9.457088
2022-10-05T06:17:00.278Z,9.457067
2022-10-05T06:18:00.293Z,9.457088
2022-10-05T06:19:00.263Z,9.457101
2022-10-05T06:20:05.019Z,9.457262
2022-10-05T06:21:01.247Z,9.457195
2022-10-05T06:22:00.234Z,9.457225
2022-10-05T06:23:00.227Z,9.457276
2022-10-05T06:24:00.210Z,9.457174
2022-10-05T06:25:00.205Z,9.457242
2022-10-05T06:26:00.196Z,9.457168
2022-10-05T06:27:00.191Z,9.457163
2022-10-05T06:28:00.274Z,9.457083
2022-10-05T06:29:00.167Z,9.457161
2022-10-05T06:30:00.150Z,9.456900
2022-10-05T06:31:00.161Z,9.457148
2022-10-05T06:32:00.204Z,9.457174
2022-10-05T06:33:00.144Z,9.457041
2022-10-05T06:34:00.117Z,9.457182
2022-10-05T06:35:00.156Z,9.457171
2022-10-05T06:36:00.084Z,9.457282
2022-10-05T06:37:00.093Z,9.457289
2022-10-05T06:38:00.116Z,9.457179
2022-10-05T06:39:00.070Z,9.457175
2022-10-05T06:40:01.260Z,9.457179
2022-10-05T06:41:00.051Z,9.457175
2022-10-05T06:42:00.032Z,9.457260
2022-10-05T06:43:00.067Z,9.457298
2022-10-05T06:44:00.006Z,9.457286
2022-10-05T06:45:00.010Z,9.457273
2022-10-05T06:46:00.082Z,9.457253
2022-10-05T06:46:59.984Z,9.457240
2022-10-05T06:48:04.380Z,9.457191
2022-10-05T06:49:01.970Z,9.457277
2022-10-05T06:49:59.950Z,9.457307
2022-10-05T06:50:59.945Z,9.457308
2022-10-05T06:51:59.937Z,9.457308
2022-10-05T06:52:59.940Z,9.457187
2022-10-05T06:53:59.918Z,9.457154
2022-10-05T06:54:59.901Z,9.457300
2022-10-05T06:55:59.895Z,9.457287
2022-10-05T06:56:59.886Z,9.457166
2022-10-05T06:57:59.893Z,9.457245
2022-10-05T06:59:12.469Z,9.457213
2022-10-05T06:59:59.853Z,9.457294
2022-10-05T07:00:59.879Z,9.457301
2022-10-05T07:01:59.853Z,9.457290
2022-10-05T07:02:59.844Z,9.457339
2022-10-05T07:03:59.811Z,9.457294
2022-10-05T07:04:59.802Z,9.457235
2022-10-05T07:05:59.793Z,9.457255
2022-10-05T07:06:59.788Z,9.457368
2022-10-05T07:07:59.798Z,9.457273
2022-10-05T07:08:59.769Z,9.457125
2022-10-05T07:09:59.754Z,9.457103
2022-10-05T07:10:59.752Z,9.457229
2022-10-05T07:12:03.590Z,9.457247
2022-10-05T07:13:01.887Z,9.457260
2022-10-05T07:13:59.718Z,9.457169
2022-10-05T07:14:59.717Z,9.457251
2022-10-05T07:15:59.747Z,9.457321
2022-10-05T07:16:59.702Z,9.457259
2022-10-05T07:17:59.696Z,9.457229
2022-10-05T07:18:59.684Z,9.457219
2022-10-05T07:19:59.662Z,9.457251
2022-10-05T07:20:59.670Z,9.457161
2022-10-05T07:21:59.685Z,9.457123
2022-10-05T07:22:59.714Z,9.457210
2022-10-05T07:23:59.618Z,9.457207
2022-10-05T07:24:59.622Z,9.457148
2022-10-05T07:25:59.633Z,9.457409
2022-10-05T07:26:59.605Z,9.457241
2022-10-05T07:27:59.636Z,9.457183
2022-10-05T07:28:59.581Z,9.457263
2022-10-05T07:29:59.547Z,9.457191
2022-10-05T07:30:59.627Z,9.457194
2022-10-05T07:31:59.533Z,9.457132
2022-10-05T07:33:00.543Z,9.457173
2022-10-05T07:33:59.523Z,9.457158
2022-10-05T07:34:59.520Z,9.457112
2022-10-05T07:35:59.507Z,9.457134
2022-10-05T07:36:59.659Z,9.457108
2022-10-05T07:37:59.478Z,9.457086
2022-10-05T07:38:59.492Z,9.457144
2022-10-05T07:40:00.907Z,9.457217
2022-10-05T07:41:00.500Z,9.457282
2022-10-05T07:41:59.434Z,9.457195
2022-10-05T07:42:59.428Z,9.457080
2022-10-05T07:44:03.380Z,9.457108
2022-10-05T07:45:00.412Z,9.457103
2022-10-05T07:45:59.449Z,9.457138
2022-10-05T07:46:59.391Z,9.457122
2022-10-05T07:47:59.385Z,9.457079
2022-10-05T07:48:59.380Z,9.457099
2022-10-05T07:49:59.338Z,9.457166
2022-10-05T07:50:59.344Z,9.457119
2022-10-05T07:51:59.360Z,9.457136
2022-10-05T07:52:59.321Z,9.457108
2022-10-05T07:53:59.321Z,9.457196
2022-10-05T07:54:59.303Z,9.457196
2022-10-05T07:55:59.705Z,9.457150
2022-10-05T07:56:59.285Z,9.457101
2022-10-05T07:57:59.285Z,9.457179
2022-10-05T07:58:59.259Z,9.457161
2022-10-05T07:59:59.257Z,9.457059
2022-10-05T08:00:59.240Z,9.457084
2022-10-05T08:01:59.310Z,9.457044
2022-10-05T08:02:59.366Z,9.457135
2022-10-05T08:03:59.222Z,9.457101
2022-10-05T08:04:59.207Z,9.457141
2022-10-05T08:05:59.192Z,9.457116
2022-10-05T08:06:59.186Z,9.457133
2022-10-05T08:07:59.198Z,9.456979
2022-10-05T08:08:59.170Z,9.457000
2022-10-05T08:09:59.144Z,9.457114
2022-10-05T08:10:59.157Z,9.456992
2022-10-05T08:11:59.299Z,9.457158
2022-10-05T08:12:59.139Z,9.457142
2022-10-05T08:13:59.104Z,9.457115
2022-10-05T08:14:59.107Z,9.457026
2022-10-05T08:15:59.353Z,9.457079
2022-10-05T08:16:59.107Z,9.456886
2022-10-05T08:17:59.165Z,9.456734
2022-10-05T08:18:59.066Z,9.456510
2022-10-05T08:19:59.052Z,9.456863
2022-10-05T08:20:59.047Z,9.457097
2022-10-05T08:21:59.041Z,9.456795
2022-10-05T08:22:59.046Z,9.456668
2022-10-05T08:23:59.021Z,9.456856
2022-10-05T08:24:59.009Z,9.457120
2022-10-05T08:25:59.006Z,9.457266
2022-10-05T08:26:58.993Z,9.457082
2022-10-05T08:27:59.033Z,9.457147
2022-10-05T08:28:58.978Z,9.457071
2022-10-05T08:29:58.964Z,9.457101
2022-10-05T08:30:59.018Z,9.457158
2022-10-05T08:31:58.942Z,9.457280
2022-10-05T08:32:58.949Z,9.457230
2022-10-05T08:33:58.927Z,9.457235
2022-10-05T08:34:58.950Z,9.457180
2022-10-05T08:35:58.901Z,9.457176
2022-10-05T08:36:58.892Z,9.457365
2022-10-05T08:37:58.870Z,9.457355
2022-10-05T08:38:58.892Z,9.457208
2022-10-05T08:39:58.899Z,9.457210
2022-10-05T08:40:58.848Z,9.457221
2022-10-05T08:41:58.822Z,9.457253
2022-10-05T08:42:58.907Z,9.457332
2022-10-05T08:43:58.843Z,9.457340
2022-10-05T08:44:58.809Z,9.457335
2022-10-05T08:45:58.893Z,9.457201
2022-10-05T08:46:58.792Z,9.457125
2022-10-05T08:47:58.781Z,9.457385
2022-10-05T08:48:58.790Z,9.457376
2022-10-05T08:49:58.752Z,9.457195
2022-10-05T08:50:58.754Z,9.457133
2022-10-05T08:51:58.748Z,9.457148
2022-10-05T08:52:58.729Z,9.457260
2022-10-05T08:53:58.745Z,9.457302
2022-10-05T08:54:58.708Z,9.457301
2022-10-05T08:55:58.746Z,9.457211
2022-10-05T08:56:58.708Z,9.457255
2022-10-05T08:57:58.711Z,9.457282
2022-10-05T08:58:58.689Z,9.457213
2022-10-05T08:59:58.672Z,9.457258
2022-10-05T09:00:58.739Z,9.457251
2022-10-05T09:01:58.732Z,9.457275
2022-10-05T09:02:58.715Z,9.457135
2022-10-05T09:03:58.651Z,9.457294
2022-10-05T09:04:58.624Z,9.457257
2022-10-05T09:05:58.603Z,9.457154
2022-10-05T09:06:58.614Z,9.457290
2022-10-05T09:07:58.586Z,9.457256
2022-10-05T09:08:58.594Z,9.457185
2022-10-05T09:10:01.750Z,9.457192
2022-10-05T09:10:58.557Z,9.457196
2022-10-05T09:11:58.546Z,9.457259
2022-10-05T09:12:58.544Z,9.457143
2022-10-05T09:13:58.540Z,9.457184
2022-10-05T09:15:23.861Z,9.457278
2022-10-05T09:16:00.610Z,9.457197
2022-10-05T09:16:58.497Z,9.457225
2022-10-05T09:17:58.483Z,9.457295
2022-10-05T09:18:58.505Z,9.457271
2022-10-05T09:19:58.470Z,9.457301
2022-10-05T09:20:58.457Z,9.457238
2022-10-05T09:21:58.503Z,9.457207
2022-10-05T09:22:58.436Z,9.457182
2022-10-05T09:23:58.438Z,9.457175
2022-10-05T09:24:58.411Z,9.457140
2022-10-05T09:25:58.408Z,9.457195
2022-10-05T09:26:58.413Z,9.457274
2022-10-05T09:27:58.436Z,9.457163
2022-10-05T09:28:58.393Z,9.457192
2022-10-05T09:29:58.361Z,9.457170
2022-10-05T09:30:58.396Z,9.457172
2022-10-05T09:31:58.342Z,9.457263
2022-10-05T09:32:58.332Z,9.457238
2022-10-05T09:33:58.337Z,9.457273
2022-10-05T09:34:58.318Z,9.457054
2022-10-05T09:35:58.304Z,9.457084
2022-10-05T09:36:58.303Z,9.457098
2022-10-05T09:37:58.309Z,9.457138
2022-10-05T09:38:58.296Z,9.457187
2022-10-05T09:40:01.314Z,9.457071
2022-10-05T09:40:59.265Z,9.457088
2022-10-05T09:41:58.252Z,9.457239
2022-10-05T09:42:58.234Z,9.457131
2022-10-05T09:43:58.251Z,9.457112
2022-10-05T09:44:58.213Z,9.457212
2022-10-05T09:45:58.231Z,9.457161
2022-10-05T09:46:58.215Z,9.456998
2022-10-05T09:47:58.218Z,9.457342
2022-10-05T09:48:58.184Z,9.457368
2022-10-05T09:49:58.174Z,9.457262
2022-10-05T09:50:58.171Z,9.457215
2022-10-05T09:51:58.160Z,9.457141
2022-10-05T09:52:58.166Z,9.457170
2022-10-05T09:53:58.135Z,9.457211
2022-10-05T09:54:58.130Z,9.457205
2022-10-05T09:55:58.118Z,9.457288
2022-10-05T09:56:58.117Z,9.457124
2022-10-05T09:57:58.118Z,9.457144
2022-10-05T09:58:58.089Z,9.457156
2022-10-05T09:59:58.120Z,9.457155
2022-10-05T10:01:08.996Z,9.457100
2022-10-05T10:01:59.099Z,9.457222
2022-10-05T10:02:58.265Z,9.457251
2022-10-05T10:03:58.037Z,9.457173
2022-10-05T10:04:58.022Z,9.457191
2022-10-05T10:05:58.059Z,9.457109
2022-10-05T10:06:58.006Z,9.457181
2022-10-05T10:07:58.027Z,9.457167
2022-10-05T10:08:58.004Z,9.457283
2022-10-05T10:09:57.987Z,9.457232
2022-10-05T10:10:57.970Z,9.457323
2022-10-05T10:11:57.954Z,9.457349
2022-10-05T10:12:57.967Z,9.457142
2022-10-05T10:13:57.946Z,9.457185
2022-10-05T10:15:02.510Z,9.457272
2022-10-05T10:15:59.019Z,9.457171
2022-10-05T10:16:57.917Z,9.457182
2022-10-05T10:17:57.916Z,9.457155
2022-10-05T10:18:57.892Z,9.457178
2022-10-05T10:19:57.887Z,9.457443
2022-10-05T10:20:57.868Z,9.457281
2022-10-05T10:21:57.868Z,9.457232
2022-10-05T10:22:57.866Z,9.457297
2022-10-05T10:23:57.836Z,9.457255
2022-10-05T10:24:57.834Z,9.457264
2022-10-05T10:25:57.815Z,9.457293
2022-10-05T10:26:57.803Z,9.457323
2022-10-05T10:27:57.901Z,9.457261
2022-10-05T10:28:57.815Z,9.457336
2022-10-05T10:29:57.786Z,9.457280
2022-10-05T10:30:57.906Z,9.457366
2022-10-05T10:31:57.758Z,9.457301
2022-10-05T10:32:57.773Z,9.457371
2022-10-05T10:33:57.777Z,9.457244
2022-10-05T10:34:57.729Z,9.457219
2022-10-05T10:35:59.560Z,9.457176
2022-10-05T10:36:58.719Z,9.457301
2022-10-05T10:37:57.741Z,9.457190
2022-10-05T10:38:57.681Z,9.457271
2022-10-05T10:39:57.671Z,9.457244
2022-10-05T10:40:57.667Z,9.457242
2022-10-05T10:41:57.666Z,9.457225
2022-10-05T10:42:57.658Z,9.457307
2022-10-05T10:43:57.629Z,9.457309
2022-10-05T10:44:57.625Z,9.457295
2022-10-05T10:45:57.660Z,9.457332
2022-10-05T10:46:57.663Z,9.457304
2022-10-05T10:47:57.595Z,9.457267
2022-10-05T10:48:57.587Z,9.457249
2022-10-05T10:49:57.575Z,9.457303
2022-10-05T10:50:57.565Z,9.457274
2022-10-05T10:51:57.553Z,9.457301
2022-10-05T10:52:57.570Z,9.457294
2022-10-05T10:53:57.643Z,9.457292
2022-10-05T10:54:57.524Z,9.457318
2022-10-05T10:55:57.510Z,9.457323
2022-10-05T10:56:57.494Z,9.457250
2022-10-05T10:57:57.529Z,9.457311
2022-10-05T10:58:57.483Z,9.457274
2022-10-05T10:59:57.475Z,9.457354
2022-10-05T11:00:57.468Z,9.457357
2022-10-05T11:01:57.579Z,9.457295
2022-10-05T11:02:57.508Z,9.457281
2022-10-05T11:03:57.473Z,9.457250
2022-10-05T11:04:57.422Z,9.457205
2022-10-05T11:05:57.417Z,9.457305
2022-10-05T11:06:57.409Z,9.457229
2022-10-05T11:07:57.383Z,9.457276
2022-10-05T11:08:57.409Z,9.457160
2022-10-05T11:09:57.374Z,9.457206
2022-10-05T11:10:57.377Z,9.457184
2022-10-05T11:11:57.339Z,9.457273
2022-10-05T11:12:57.348Z,9.457214
2022-10-05T11:13:57.356Z,9.457151
2022-10-05T11:14:57.339Z,9.457212
2022-10-05T11:15:57.362Z,9.457219
2022-10-05T11:16:57.304Z,9.457369
2022-10-05T11:17:57.298Z,9.457234
2022-10-05T11:18:57.310Z,9.457277
2022-10-05T11:20:05.198Z,9.457278
2022-10-05T11:20:59.272Z,9.457233
2022-10-05T11:21:57.254Z,9.457332
2022-10-05T11:22:57.254Z,9.457313
2022-10-05T11:23:57.238Z,9.457345
2022-10-05T11:24:57.219Z,9.457269
2022-10-05T11:25:57.216Z,9.457219
2022-10-05T11:26:57.207Z,9.457273
2022-10-05T11:27:57.210Z,9.457228
2022-10-05T11:28:57.202Z,9.457358
2022-10-05T11:29:57.175Z,9.457228
2022-10-05T11:30:57.197Z,9.457212
2022-10-05T11:31:57.247Z,9.457296
2022-10-05T11:32:57.149Z,9.457286
2022-10-05T11:33:57.143Z,9.457285
2022-10-05T11:34:57.124Z,9.457412
2022-10-05T11:35:57.102Z,9.457376
2022-10-05T11:36:57.109Z,9.457445
2022-10-05T11:37:57.098Z,9.457358
2022-10-05T11:38:57.107Z,9.457314
2022-10-05T11:39:57.075Z,9.457321
2022-10-05T11:40:57.072Z,9.457279
2022-10-05T11:41:57.065Z,9.457258
2022-10-05T11:42:57.046Z,9.457319
2022-10-05T11:43:57.056Z,9.457349